Airfield :
LOGIN :

Register | Disclaimer

   EN    FR    IT 

 










Legend :    VFR   Marginal VFR   IFR   Intensive IFR   Very Intensive IFR
Visi :
Ceiling :
>= 8 km
>= 3000ft
5 to 8 km
1000 to 3000 ft
1500m to 5 km
500 to 1000 ft
800 to 1500m
200 to 500 ft
< 800m
< 200 ft
Symbols :   Thunderstorms  Fog  Heavy snow  Heavy precipitations  Wind > 20 kt
SIGMETs :     Misc.  Thunderstorms  Icing  Turbulence  Mountain Waves  Volcanic Ashes






- Airport Elevation : 8 ft
- IATA code : JCU


GECE - Ceuta Heliport

CURRENT METAR :
  • 301800Z AUTO 32010KT CAVOK 22/08 Q1024

EXPIRED METARs :
  • 301730Z AUTO 32012KT CAVOK 23/07 Q1024
  • 301700Z AUTO 32010KT CAVOK 24/05 Q1024
  • 301630Z AUTO 32012KT CAVOK 22/09 Q1024
  • 301600Z AUTO 30012KT CAVOK 23/09 Q1024
  • 301530Z AUTO 31013KT CAVOK 22/11 Q1024
  • 301500Z AUTO 31013G30KT 270V330 CAVOK 22/12 Q1024

TAF TAF GECE
Valid from the 30 at 15:00 until the 31 at 15:00 UTC


301400Z 3015/3115 29012KT 9999 FEW020 TX22/3114Z TN14/3106Z



MET'MAP, your aeronautical weather chart ! - Copyright ORBIFLY December 2007 - Disclaimer

ORBIFLY MET'MAP TEAM :

Programming & Development : Alexandra Zaïnal
Original concept : Baudouin d'Aumeries
Technical & hardware support : Manuel Goepfert
Assistance : Marc-Olivier Méhu




SOURCES & CREDITS :

   NOAA